sensor_id;sensor_type;location;lat;lon;timestamp;P1;P2;P0
33948;PMS7003;20229;49.856;19.030;2023-04-04T00:01:29;10;9;5
33948;PMS7003;20229;49.856;19.030;2023-04-04T00:06:43;10;9;5
33948;PMS7003;20229;49.856;19.030;2023-04-04T00:11:59;20;17;13
33948;PMS7003;20229;49.856;19.030;2023-04-04T00:17:15;20;17;14
33948;PMS7003;20229;49.856;19.030;2023-04-04T00:22:29;24;18;13
33948;PMS7003;20229;49.856;19.030;2023-04-04T00:27:44;22;19;15
33948;PMS7003;20229;49.856;19.030;2023-04-04T00:32:58;25;21;18
33948;PMS7003;20229;49.856;19.030;2023-04-04T00:38:14;29;24;20
33948;PMS7003;20229;49.856;19.030;2023-04-04T00:43:28;25;23;18
33948;PMS7003;20229;49.856;19.030;2023-04-04T00:48:42;18;17;12
33948;PMS7003;20229;49.856;19.030;2023-04-04T00:53:56;22;18;14
33948;PMS7003;20229;49.856;19.030;2023-04-04T00:59:11;16;16;11
33948;PMS7003;20229;49.856;19.030;2023-04-04T01:04:26;18;13;9
33948;PMS7003;20229;49.856;19.030;2023-04-04T01:09:44;21;14;9
33948;PMS7003;20229;49.856;19.030;2023-04-04T01:15:00;13;10;8
33948;PMS7003;20229;49.856;19.030;2023-04-04T01:20:14;14;13;10
33948;PMS7003;20229;49.856;19.030;2023-04-04T01:25:33;13;8;5
33948;PMS7003;20229;49.856;19.030;2023-04-04T01:30:47;7;5;2
33948;PMS7003;20229;49.856;19.030;2023-04-04T01:36:03;3;2;1
33948;PMS7003;20229;49.856;19.030;2023-04-04T01:41:24;6;3;0
33948;PMS7003;20229;49.856;19.030;2023-04-04T01:46:39;27;25;18
33948;PMS7003;20229;49.856;19.030;2023-04-04T01:51:54;30;26;22
33948;PMS7003;20229;49.856;19.030;2023-04-04T01:57:09;30;26;18
33948;PMS7003;20229;49.856;19.030;2023-04-04T02:02:22;30;26;18
33948;PMS7003;20229;49.856;19.030;2023-04-04T02:07:40;23;20;14
33948;PMS7003;20229;49.856;19.030;2023-04-04T02:12:54;37;32;23
33948;PMS7003;20229;49.856;19.030;2023-04-04T02:18:08;51;43;34
33948;PMS7003;20229;49.856;19.030;2023-04-04T02:23:22;54;45;39
33948;PMS7003;20229;49.856;19.030;2023-04-04T02:28:36;55;44;36
33948;PMS7003;20229;49.856;19.030;2023-04-04T02:33:50;57;46;40
33948;PMS7003;20229;49.856;19.030;2023-04-04T02:39:03;55;45;36
33948;PMS7003;20229;49.856;19.030;2023-04-04T02:44:18;57;49;41
33948;PMS7003;20229;49.856;19.030;2023-04-04T02:49:32;50;41;35
33948;PMS7003;20229;49.856;19.030;2023-04-04T02:54:46;49;41;31
33948;PMS7003;20229;49.856;19.030;2023-04-04T03:00:00;38;31;24
33948;PMS7003;20229;49.856;19.030;2023-04-04T03:05:16;35;29;25
33948;PMS7003;20229;49.856;19.030;2023-04-04T03:10:31;21;18;12
33948;PMS7003;20229;49.856;19.030;2023-04-04T03:15:45;25;23;17
33948;PMS7003;20229;49.856;19.030;2023-04-04T03:20:59;17;16;12
33948;PMS7003;20229;49.856;19.030;2023-04-04T03:26:13;22;17;10
33948;PMS7003;20229;49.856;19.030;2023-04-04T03:31:27;22;20;14
33948;PMS7003;20229;49.856;19.030;2023-04-04T03:36:41;19;19;14
33948;PMS7003;20229;49.856;19.030;2023-04-04T03:41:55;20;17;11
33948;PMS7003;20229;49.856;19.030;2023-04-04T03:47:10;17;15;10
33948;PMS7003;20229;49.856;19.030;2023-04-04T03:52:24;31;25;17
33948;PMS7003;20229;49.856;19.030;2023-04-04T03:57:37;31;26;17
33948;PMS7003;20229;49.856;19.030;2023-04-04T04:02:51;26;23;14
33948;PMS7003;20229;49.856;19.030;2023-04-04T04:08:05;25;21;14
33948;PMS7003;20229;49.856;19.030;2023-04-04T04:13:19;24;20;16
33948;PMS7003;20229;49.856;19.030;2023-04-04T04:18:34;23;20;14
33948;PMS7003;20229;49.856;19.030;2023-04-04T04:23:47;29;24;17
33948;PMS7003;20229;49.856;19.030;2023-04-04T04:29:01;24;22;15
33948;PMS7003;20229;49.856;19.030;2023-04-04T04:34:15;24;22;17
33948;PMS7003;20229;49.856;19.030;2023-04-04T04:39:29;25;19;15
33948;PMS7003;20229;49.856;19.030;2023-04-04T04:44:43;23;20;17
33948;PMS7003;20229;49.856;19.030;2023-04-04T04:49:57;27;21;15
33948;PMS7003;20229;49.856;19.030;2023-04-04T04:55:11;26;21;16
33948;PMS7003;20229;49.856;19.030;2023-04-04T05:00:24;22;17;13
33948;PMS7003;20229;49.856;19.030;2023-04-04T05:05:38;23;20;18
33948;PMS7003;20229;49.856;19.030;2023-04-04T05:10:53;38;32;24
33948;PMS7003;20229;49.856;19.030;2023-04-04T05:16:08;48;36;29
33948;PMS7003;20229;49.856;19.030;2023-04-04T05:21:23;48;41;34
33948;PMS7003;20229;49.856;19.030;2023-04-04T05:26:36;50;42;34
33948;PMS7003;20229;49.856;19.030;2023-04-04T05:31:50;48;40;34
33948;PMS7003;20229;49.856;19.030;2023-04-04T05:37:04;53;42;36
33948;PMS7003;20229;49.856;19.030;2023-04-04T05:42:18;52;42;36
33948;PMS7003;20229;49.856;19.030;2023-04-04T05:47:32;40;32;25
33948;PMS7003;20229;49.856;19.030;2023-04-04T05:52:45;25;21;16
33948;PMS7003;20229;49.856;19.030;2023-04-04T05:57:59;22;20;15
33948;PMS7003;20229;49.856;19.030;2023-04-04T06:03:13;31;28;24
33948;PMS7003;20229;49.856;19.030;2023-04-04T06:08:29;4;3;0
33948;PMS7003;20229;49.856;19.030;2023-04-04T06:13:44;6;5;0
33948;PMS7003;20229;49.856;19.030;2023-04-04T06:18:59;17;15;12
33948;PMS7003;20229;49.856;19.030;2023-04-04T06:24:13;14;12;9
33948;PMS7003;20229;49.856;19.030;2023-04-04T06:29:26;19;15;11
33948;PMS7003;20229;49.856;19.030;2023-04-04T06:34:40;18;15;10
33948;PMS7003;20229;49.856;19.030;2023-04-04T06:39:55;18;16;11
33948;PMS7003;20229;49.856;19.030;2023-04-04T06:45:09;17;16;13
33948;PMS7003;20229;49.856;19.030;2023-04-04T06:50:23;18;17;14
33948;PMS7003;20229;49.856;19.030;2023-04-04T06:55:37;24;19;15
33948;PMS7003;20229;49.856;19.030;2023-04-04T07:00:52;24;19;16
33948;PMS7003;20229;49.856;19.030;2023-04-04T07:06:06;20;20;16
33948;PMS7003;20229;49.856;19.030;2023-04-04T07:11:20;12;10;5
33948;PMS7003;20229;49.856;19.030;2023-04-04T07:16:36;12;9;4
33948;PMS7003;20229;49.856;19.030;2023-04-04T07:21:51;18;16;10
33948;PMS7003;20229;49.856;19.030;2023-04-04T07:27:05;22;17;12
33948;PMS7003;20229;49.856;19.030;2023-04-04T07:32:20;18;16;11
33948;PMS7003;20229;49.856;19.030;2023-04-04T07:37:36;17;16;13
33948;PMS7003;20229;49.856;19.030;2023-04-04T07:42:51;33;30;24
33948;PMS7003;20229;49.856;19.030;2023-04-04T07:48:06;70;67;60
33948;PMS7003;20229;49.856;19.030;2023-04-04T07:53:21;78;70;66
33948;PMS7003;20229;49.856;19.030;2023-04-04T07:58:34;52;44;34
33948;PMS7003;20229;49.856;19.030;2023-04-04T08:03:48;35;31;26
33948;PMS7003;20229;49.856;19.030;2023-04-04T08:09:05;31;28;23
33948;PMS7003;20229;49.856;19.030;2023-04-04T08:14:19;14;13;8
33948;PMS7003;20229;49.856;19.030;2023-04-04T08:19:32;44;37;30
33948;PMS7003;20229;49.856;19.030;2023-04-04T08:24:47;42;36;29
33948;PMS7003;20229;49.856;19.030;2023-04-04T08:30:01;46;40;33
33948;PMS7003;20229;49.856;19.030;2023-04-04T08:35:16;71;65;61
33948;PMS7003;20229;49.856;19.030;2023-04-04T08:40:30;64;55;50
33948;PMS7003;20229;49.856;19.030;2023-04-04T08:45:45;54;45;39
33948;PMS7003;20229;49.856;19.030;2023-04-04T08:51:02;53;44;36
33948;PMS7003;20229;49.856;19.030;2023-04-04T08:56:17;40;35;28
33948;PMS7003;20229;49.856;19.030;2023-04-04T09:01:31;34;30;24
33948;PMS7003;20229;49.856;19.030;2023-04-04T09:06:45;59;48;45
33948;PMS7003;20229;49.856;19.030;2023-04-04T09:12:00;53;44;38
33948;PMS7003;20229;49.856;19.030;2023-04-04T09:17:15;60;51;45
33948;PMS7003;20229;49.856;19.030;2023-04-04T09:22:29;65;57;54
33948;PMS7003;20229;49.856;19.030;2023-04-04T09:32:07;44;37;29
33948;PMS7003;20229;49.856;19.030;2023-04-04T09:37:29;53;45;39
33948;PMS7003;20229;49.856;19.030;2023-04-04T09:42:43;23;22;21
33948;PMS7003;20229;49.856;19.030;2023-04-04T09:47:56;32;28;24
33948;PMS7003;20229;49.856;19.030;2023-04-04T09:58:31;82;77;74
33948;PMS7003;20229;49.856;19.030;2023-04-04T10:03:51;42;37;30
33948;PMS7003;20229;49.856;19.030;2023-04-04T10:09:10;51;43;36
33948;PMS7003;20229;49.856;19.030;2023-04-04T10:14:32;49;43;35
33948;PMS7003;20229;49.856;19.030;2023-04-04T10:19:46;38;35;28
33948;PMS7003;20229;49.856;19.030;2023-04-04T10:25:02;30;27;23
33948;PMS7003;20229;49.856;19.030;2023-04-04T10:30:17;7;6;4
33948;PMS7003;20229;49.856;19.030;2023-04-04T10:35:33;55;49;42
33948;PMS7003;20229;49.856;19.030;2023-04-04T10:40:50;21;17;15
33948;PMS7003;20229;49.856;19.030;2023-04-04T10:46:07;30;28;25
33948;PMS7003;20229;49.856;19.030;2023-04-04T10:51:26;38;37;33
33948;PMS7003;20229;49.856;19.030;2023-04-04T10:56:44;61;57;50
33948;PMS7003;20229;49.856;19.030;2023-04-04T11:01:58;167;163;159
33948;PMS7003;20229;49.856;19.030;2023-04-04T11:07:17;197;193;192
33948;PMS7003;20229;49.856;19.030;2023-04-04T11:12:31;285;283;281
33948;PMS7003;20229;49.856;19.030;2023-04-04T11:17:57;210;210;208
33948;PMS7003;20229;49.856;19.030;2023-04-04T11:23:16;206;205;203
33948;PMS7003;20229;49.856;19.030;2023-04-04T11:39:54;17;16;13
33948;PMS7003;20229;49.856;19.030;2023-04-04T11:45:17;15;13;11
33948;PMS7003;20229;49.856;19.030;2023-04-04T11:50:37;10;10;7
33948;PMS7003;20229;49.856;19.030;2023-04-04T11:55:52;13;9;7
33948;PMS7003;20229;49.856;19.030;2023-04-04T12:01:08;12;12;9
33948;PMS7003;20229;49.856;19.030;2023-04-04T12:06:22;8;8;6
33948;PMS7003;20229;49.856;19.030;2023-04-04T12:11:37;14;9;8
33948;PMS7003;20229;49.856;19.030;2023-04-04T12:16:53;11;10;7
33948;PMS7003;20229;49.856;19.030;2023-04-04T12:22:08;11;9;7
33948;PMS7003;20229;49.856;19.030;2023-04-04T12:27:22;17;15;12
33948;PMS7003;20229;49.856;19.030;2023-04-04T12:32:37;12;10;9
33948;PMS7003;20229;49.856;19.030;2023-04-04T12:43:17;16;13;11
33948;PMS7003;20229;49.856;19.030;2023-04-04T12:48:32;19;18;15
33948;PMS7003;20229;49.856;19.030;2023-04-04T12:53:50;15;11;9
33948;PMS7003;20229;49.856;19.030;2023-04-04T12:59:06;15;14;12
33948;PMS7003;20229;49.856;19.030;2023-04-04T13:04:23;8;7;4
33948;PMS7003;20229;49.856;19.030;2023-04-04T13:09:49;4;3;1
33948;PMS7003;20229;49.856;19.030;2023-04-04T13:15:04;26;22;18
33948;PMS7003;20229;49.856;19.030;2023-04-04T13:20:23;26;24;21
33948;PMS7003;20229;49.856;19.030;2023-04-04T13:25:39;28;26;21
33948;PMS7003;20229;49.856;19.030;2023-04-04T13:30:53;27;25;22
33948;PMS7003;20229;49.856;19.030;2023-04-04T13:36:07;26;22;20
33948;PMS7003;20229;49.856;19.030;2023-04-04T13:41:21;26;22;20
33948;PMS7003;20229;49.856;19.030;2023-04-04T13:46:35;30;27;22
33948;PMS7003;20229;49.856;19.030;2023-04-04T13:51:49;33;30;26
33948;PMS7003;20229;49.856;19.030;2023-04-04T13:57:02;22;22;18
33948;PMS7003;20229;49.856;19.030;2023-04-04T14:02:16;25;24;20
33948;PMS7003;20229;49.856;19.030;2023-04-04T14:07:30;22;21;16
33948;PMS7003;20229;49.856;19.030;2023-04-04T14:12:44;25;24;20
33948;PMS7003;20229;49.856;19.030;2023-04-04T14:17:58;21;21;19
33948;PMS7003;20229;49.856;19.030;2023-04-04T14:23:12;26;26;23
33948;PMS7003;20229;49.856;19.030;2023-04-04T14:28:27;38;36;29
33948;PMS7003;20229;49.856;19.030;2023-04-04T14:33:40;17;15;12
33948;PMS7003;20229;49.856;19.030;2023-04-04T14:38:54;19;18;15
33948;PMS7003;20229;49.856;19.030;2023-04-04T14:44:08;31;28;21
33948;PMS7003;20229;49.856;19.030;2023-04-04T14:49:23;23;20;17
33948;PMS7003;20229;49.856;19.030;2023-04-04T14:54:36;21;20;18
33948;PMS7003;20229;49.856;19.030;2023-04-04T14:59:50;30;26;21
33948;PMS7003;20229;49.856;19.030;2023-04-04T15:05:05;40;36;29
33948;PMS7003;20229;49.856;19.030;2023-04-04T15:10:19;31;26;21
33948;PMS7003;20229;49.856;19.030;2023-04-04T15:15:35;14;14;12
33948;PMS7003;20229;49.856;19.030;2023-04-04T15:20:49;7;6;3
33948;PMS7003;20229;49.856;19.030;2023-04-04T15:26:04;5;4;1
33948;PMS7003;20229;49.856;19.030;2023-04-04T15:31:18;57;55;53
33948;PMS7003;20229;49.856;19.030;2023-04-04T15:36:33;63;63;61
33948;PMS7003;20229;49.856;19.030;2023-04-04T15:41:48;30;24;20
33948;PMS7003;20229;49.856;19.030;2023-04-04T15:47:02;132;129;126
33948;PMS7003;20229;49.856;19.030;2023-04-04T15:52:17;131;128;125
33948;PMS7003;20229;49.856;19.030;2023-04-04T15:57:30;76;67;63
33948;PMS7003;20229;49.856;19.030;2023-04-04T16:02:44;199;199;198
33948;PMS7003;20229;49.856;19.030;2023-04-04T16:07:58;177;176;174
33948;PMS7003;20229;49.856;19.030;2023-04-04T16:13:12;162;160;157
33948;PMS7003;20229;49.856;19.030;2023-04-04T16:18:26;238;237;235
33948;PMS7003;20229;49.856;19.030;2023-04-04T16:23:40;165;161;159
33948;PMS7003;20229;49.856;19.030;2023-04-04T16:28:56;97;94;89
33948;PMS7003;20229;49.856;19.030;2023-04-04T16:34:10;44;38;32
33948;PMS7003;20229;49.856;19.030;2023-04-04T16:39:24;38;33;27
33948;PMS7003;20229;49.856;19.030;2023-04-04T16:44:38;20;19;16
33948;PMS7003;20229;49.856;19.030;2023-04-04T16:49:52;27;25;20
33948;PMS7003;20229;49.856;19.030;2023-04-04T16:55:08;19;15;11
33948;PMS7003;20229;49.856;19.030;2023-04-04T17:00:22;23;21;16
33948;PMS7003;20229;49.856;19.030;2023-04-04T17:05:36;19;16;11
33948;PMS7003;20229;49.856;19.030;2023-04-04T17:10:50;20;15;12
33948;PMS7003;20229;49.856;19.030;2023-04-04T17:16:05;21;14;9
33948;PMS7003;20229;49.856;19.030;2023-04-04T17:21:20;14;13;8
33948;PMS7003;20229;49.856;19.030;2023-04-04T17:26:34;24;20;14
33948;PMS7003;20229;49.856;19.030;2023-04-04T17:31:49;15;15;10
33948;PMS7003;20229;49.856;19.030;2023-04-04T17:37:03;15;14;9
33948;PMS7003;20229;49.856;19.030;2023-04-04T17:42:23;18;16;11
33948;PMS7003;20229;49.856;19.030;2023-04-04T17:47:37;14;14;10
33948;PMS7003;20229;49.856;19.030;2023-04-04T17:52:51;13;10;6
33948;PMS7003;20229;49.856;19.030;2023-04-04T17:58:07;9;7;5
33948;PMS7003;20229;49.856;19.030;2023-04-04T18:03:21;9;8;5
33948;PMS7003;20229;49.856;19.030;2023-04-04T18:08:38;17;12;9
33948;PMS7003;20229;49.856;19.030;2023-04-04T18:13:54;12;9;6
33948;PMS7003;20229;49.856;19.030;2023-04-04T18:19:08;9;7;3
33948;PMS7003;20229;49.856;19.030;2023-04-04T18:24:22;17;14;8
33948;PMS7003;20229;49.856;19.030;2023-04-04T18:29:38;26;23;13
33948;PMS7003;20229;49.856;19.030;2023-04-04T18:34:55;29;24;15
33948;PMS7003;20229;49.856;19.030;2023-04-04T18:40:09;35;29;17
33948;PMS7003;20229;49.856;19.030;2023-04-04T18:45:24;16;16;9
33948;PMS7003;20229;49.856;19.030;2023-04-04T18:50:38;27;21;11
33948;PMS7003;20229;49.856;19.030;2023-04-04T18:55:56;17;16;10
33948;PMS7003;20229;49.856;19.030;2023-04-04T19:01:12;17;15;9
33948;PMS7003;20229;49.856;19.030;2023-04-04T19:06:28;12;11;6
33948;PMS7003;20229;49.856;19.030;2023-04-04T19:11:44;11;9;5
33948;PMS7003;20229;49.856;19.030;2023-04-04T19:16:59;16;14;10
33948;PMS7003;20229;49.856;19.030;2023-04-04T19:22:13;9;7;4
33948;PMS7003;20229;49.856;19.030;2023-04-04T19:27:28;13;11;7
33948;PMS7003;20229;49.856;19.030;2023-04-04T19:32:42;12;11;7
33948;PMS7003;20229;49.856;19.030;2023-04-04T19:37:55;18;15;11
33948;PMS7003;20229;49.856;19.030;2023-04-04T19:43:09;10;9;4
33948;PMS7003;20229;49.856;19.030;2023-04-04T19:53:53;14;13;9
33948;PMS7003;20229;49.856;19.030;2023-04-04T19:59:39;16;11;6
33948;PMS7003;20229;49.856;19.030;2023-04-04T20:04:36;11;9;5
33948;PMS7003;20229;49.856;19.030;2023-04-04T20:09:50;19;15;10
33948;PMS7003;20229;49.856;19.030;2023-04-04T20:15:05;12;12;6
33948;PMS7003;20229;49.856;19.030;2023-04-04T20:21:13;14;14;11
33948;PMS7003;20229;49.856;19.030;2023-04-04T20:25:52;20;15;10
33948;PMS7003;20229;49.856;19.030;2023-04-04T20:31:07;20;18;11
33948;PMS7003;20229;49.856;19.030;2023-04-04T20:41:44;28;24;14
33948;PMS7003;20229;49.856;19.030;2023-04-04T20:46:58;27;25;17
33948;PMS7003;20229;49.856;19.030;2023-04-04T20:52:18;34;25;18
33948;PMS7003;20229;49.856;19.030;2023-04-04T20:57:37;30;27;22
33948;PMS7003;20229;49.856;19.030;2023-04-04T21:02:52;31;26;21
33948;PMS7003;20229;49.856;19.030;2023-04-04T21:08:33;28;24;21
33948;PMS7003;20229;49.856;19.030;2023-04-04T21:14:00;29;27;20
33948;PMS7003;20229;49.856;19.030;2023-04-04T21:19:18;25;20;16
33948;PMS7003;20229;49.856;19.030;2023-04-04T21:24:32;30;27;18
33948;PMS7003;20229;49.856;19.030;2023-04-04T21:29:47;23;22;14
33948;PMS7003;20229;49.856;19.030;2023-04-04T21:35:01;31;26;17
33948;PMS7003;20229;49.856;19.030;2023-04-04T21:40:21;14;12;5
33948;PMS7003;20229;49.856;19.030;2023-04-04T21:45:35;21;15;8
33948;PMS7003;20229;49.856;19.030;2023-04-04T21:50:49;60;57;49
33948;PMS7003;20229;49.856;19.030;2023-04-04T21:56:03;29;25;20
33948;PMS7003;20229;49.856;19.030;2023-04-04T22:01:18;40;33;26
33948;PMS7003;20229;49.856;19.030;2023-04-04T22:06:31;51;44;36
33948;PMS7003;20229;49.856;19.030;2023-04-04T22:11:47;56;47;38
33948;PMS7003;20229;49.856;19.030;2023-04-04T22:17:01;50;42;33
33948;PMS7003;20229;49.856;19.030;2023-04-04T22:22:18;63;51;42
33948;PMS7003;20229;49.856;19.030;2023-04-04T22:27:33;41;34;23
33948;PMS7003;20229;49.856;19.030;2023-04-04T22:32:47;36;28;23
33948;PMS7003;20229;49.856;19.030;2023-04-04T22:38:00;34;30;22
33948;PMS7003;20229;49.856;19.030;2023-04-04T22:43:16;39;34;25
33948;PMS7003;20229;49.856;19.030;2023-04-04T22:48:30;32;27;22
33948;PMS7003;20229;49.856;19.030;2023-04-04T22:53:53;38;32;23
33948;PMS7003;20229;49.856;19.030;2023-04-04T22:59:09;46;38;25
33948;PMS7003;20229;49.856;19.030;2023-04-04T23:04:23;47;37;25
33948;PMS7003;20229;49.856;19.030;2023-04-04T23:09:39;24;19;8
33948;PMS7003;20229;49.856;19.030;2023-04-04T23:14:55;44;37;24
33948;PMS7003;20229;49.856;19.030;2023-04-04T23:20:15;47;35;21
33948;PMS7003;20229;49.856;19.030;2023-04-04T23:25:30;43;34;23
33948;PMS7003;20229;49.856;19.030;2023-04-04T23:30:44;51;39;27
33948;PMS7003;20229;49.856;19.030;2023-04-04T23:35:58;43;35;20
33948;PMS7003;20229;49.856;19.030;2023-04-04T23:41:11;51;38;24
33948;PMS7003;20229;49.856;19.030;2023-04-04T23:46:25;48;38;25
33948;PMS7003;20229;49.856;19.030;2023-04-04T23:51:45;46;36;23
33948;PMS7003;20229;49.856;19.030;2023-04-04T23:56:59;45;36;23
